createdAt,value
2023-01-13T00:01:27.151Z,97406.41
2023-01-13T00:03:54.050Z,97400.63
2023-01-13T00:06:23.754Z,97391.50
2023-01-13T00:08:52.065Z,97360.00
2023-01-13T00:11:19.966Z,97333.09
2023-01-13T00:13:47.212Z,97394.13
2023-01-13T00:16:18.875Z,97354.09
2023-01-13T00:18:47.497Z,97307.91
2023-01-13T00:21:22.444Z,97321.75
2023-01-13T00:23:52.276Z,97389.34
2023-01-13T00:26:23.277Z,97373.31
2023-01-13T00:28:50.444Z,97308.84
2023-01-13T00:31:21.624Z,97390.09
2023-01-13T00:33:50.550Z,97382.09
2023-01-13T00:36:19.506Z,97382.72
2023-01-13T00:38:46.775Z,97317.06
2023-01-13T00:41:20.072Z,97264.97
2023-01-13T00:43:47.757Z,97317.44
2023-01-13T00:46:18.108Z,97376.00
2023-01-13T00:48:45.819Z,97335.44
2023-01-13T00:51:21.777Z,97256.13
2023-01-13T00:53:51.929Z,97309.06
2023-01-13T00:56:34.204Z,97365.06
2023-01-13T00:59:05.630Z,97332.06
2023-01-13T01:01:33.003Z,97377.41
2023-01-13T01:04:02.636Z,97375.38
2023-01-13T01:06:34.277Z,97376.97
2023-01-13T01:09:03.880Z,97334.66
2023-01-13T01:11:33.955Z,97364.56
2023-01-13T01:14:04.680Z,97363.94
2023-01-13T01:16:33.835Z,97368.16
2023-01-13T01:19:01.605Z,97352.94
2023-01-13T01:21:29.723Z,97360.88
2023-01-13T01:24:01.326Z,97307.38
2023-01-13T01:26:31.056Z,97360.31
2023-01-13T01:28:58.041Z,97101.72
2023-01-13T01:31:31.779Z,97347.31
2023-01-13T01:34:00.404Z,97342.53
2023-01-13T01:36:29.047Z,97337.78
2023-01-13T01:38:58.029Z,97332.38
2023-01-13T01:41:31.114Z,97343.91
2023-01-13T01:44:42.220Z,97335.38
2023-01-13T01:47:11.813Z,97335.81
2023-01-13T01:49:40.261Z,97326.72
2023-01-13T01:52:16.440Z,97333.75
2023-01-13T01:55:01.889Z,97349.03
2023-01-13T01:57:52.343Z,97339.81
2023-01-13T02:00:19.345Z,97283.16
2023-01-13T02:02:49.803Z,97304.41
2023-01-13T02:05:17.607Z,97333.47
2023-01-13T02:07:47.476Z,97322.25
2023-01-13T02:10:18.229Z,97329.66
2023-01-13T02:12:46.361Z,97261.38
2023-01-13T02:15:47.674Z,97321.03
2023-01-13T02:18:27.058Z,97321.03
2023-01-13T02:21:15.089Z,97319.13
2023-01-13T02:24:00.568Z,97322.84
2023-01-13T02:27:17.988Z,97317.19
2023-01-13T02:30:10.067Z,97292.00
2023-01-13T02:32:55.272Z,97300.25
2023-01-13T02:35:35.357Z,97283.00
2023-01-13T02:38:03.340Z,97307.41
2023-01-13T02:40:38.010Z,97302.78
2023-01-13T02:43:18.260Z,97261.66
2023-01-13T02:45:53.650Z,97250.34
2023-01-13T02:48:24.202Z,97268.56
2023-01-13T02:50:56.556Z,97294.38
2023-01-13T02:53:31.627Z,97269.34
2023-01-13T02:56:03.125Z,97290.25
2023-01-13T02:58:33.154Z,97232.13
2023-01-13T03:01:00.142Z,97232.25
2023-01-13T03:03:27.146Z,97287.44
2023-01-13T03:06:12.068Z,97282.31
2023-01-13T03:08:49.877Z,97085.81
2023-01-13T03:11:19.085Z,97275.44
2023-01-13T03:13:48.843Z,97283.97
2023-01-13T03:16:37.561Z,97278.38
2023-01-13T03:19:14.006Z,97277.00
2023-01-13T03:22:11.742Z,97296.38
2023-01-13T03:25:00.864Z,97282.50
2023-01-13T03:27:42.085Z,97280.81
2023-01-13T03:30:55.240Z,97285.03
2023-01-13T03:33:28.384Z,97258.34
2023-01-13T03:35:59.879Z,97283.34
2023-01-13T03:38:33.925Z,97229.19
2023-01-13T03:41:06.513Z,97180.53
2023-01-13T03:44:01.433Z,97260.22
2023-01-13T03:47:01.975Z,97200.59
2023-01-13T03:49:36.655Z,97213.59
2023-01-13T03:52:07.399Z,97196.63
2023-01-13T03:54:42.171Z,97277.81
2023-01-13T03:57:12.812Z,97262.69
2023-01-13T03:59:43.596Z,97220.19
2023-01-13T04:02:16.628Z,97264.69
2023-01-13T04:04:57.481Z,97207.47
2023-01-13T04:07:30.784Z,97258.72
2023-01-13T04:10:01.727Z,97262.97
2023-01-13T04:12:31.112Z,97274.03
2023-01-13T04:14:57.936Z,97245.09
2023-01-13T04:17:24.899Z,97202.75
2023-01-13T04:19:51.533Z,97257.06
2023-01-13T04:22:18.176Z,97186.72
2023-01-13T04:24:44.801Z,97267.63
2023-01-13T04:27:11.540Z,97231.34
2023-01-13T04:29:38.284Z,97268.41
2023-01-13T04:32:05.096Z,97224.84
2023-01-13T04:34:31.728Z,97224.28
2023-01-13T04:36:58.377Z,97195.53
2023-01-13T04:39:25.059Z,97200.78
2023-01-13T04:41:51.731Z,97278.16
2023-01-13T04:44:18.448Z,97192.34
2023-01-13T04:46:46.501Z,97267.63
2023-01-13T04:49:13.833Z,97261.38
2023-01-13T04:51:40.588Z,97250.59
2023-01-13T04:54:07.420Z,97268.25
2023-01-13T04:56:34.077Z,97233.25
2023-01-13T04:59:00.739Z,97268.84
2023-01-13T05:01:27.729Z,97164.44
2023-01-13T05:03:54.421Z,97060.31
2023-01-13T05:06:21.339Z,97266.44
2023-01-13T05:08:48.009Z,97267.03
2023-01-13T05:11:14.924Z,97274.47
2023-01-13T05:13:41.517Z,97262.47
2023-01-13T05:16:11.429Z,97263.53
2023-01-13T05:18:38.129Z,97221.25
2023-01-13T05:21:06.208Z,97273.81
2023-01-13T05:23:33.288Z,97322.69
2023-01-13T05:25:59.937Z,97346.66
2023-01-13T05:28:26.579Z,97339.81
2023-01-13T05:30:53.332Z,97336.72
2023-01-13T05:33:20.362Z,97327.44
2023-01-13T05:35:48.376Z,97342.41
2023-01-13T05:38:15.833Z,97299.31
2023-01-13T05:40:42.523Z,97278.63
2023-01-13T05:43:14.558Z,97305.34
2023-01-13T05:45:41.522Z,97341.97
2023-01-13T05:48:08.823Z,97347.84
2023-01-13T05:50:35.503Z,97334.31
2023-01-13T05:53:06.554Z,97367.78
2023-01-13T05:55:33.204Z,97259.47
2023-01-13T05:57:59.794Z,97332.38
2023-01-13T06:00:26.529Z,97253.47
2023-01-13T06:02:53.149Z,97279.66
2023-01-13T06:05:19.884Z,97277.44
2023-01-13T06:07:46.540Z,97357.63
2023-01-13T06:10:13.228Z,97341.56
2023-01-13T06:12:39.799Z,97281.50
2023-01-13T06:15:06.915Z,97314.88
2023-01-13T06:17:33.555Z,97328.31
2023-01-13T06:20:00.249Z,97325.78
2023-01-13T06:22:29.777Z,97369.28
2023-01-13T06:24:56.551Z,97428.44
2023-01-13T06:27:23.398Z,97369.16
2023-01-13T06:29:50.831Z,97354.94
2023-01-13T06:32:22.507Z,97375.44
2023-01-13T06:34:55.629Z,97352.00
2023-01-13T06:37:23.672Z,97358.81
2023-01-13T06:39:50.285Z,97345.81
2023-01-13T06:42:18.161Z,97335.56
2023-01-13T06:44:45.611Z,97402.75
2023-01-13T06:47:12.915Z,97379.03
2023-01-13T06:49:39.991Z,97350.28
2023-01-13T06:52:06.783Z,97429.31
2023-01-13T06:54:33.660Z,97364.34
2023-01-13T06:57:01.406Z,97357.22
2023-01-13T06:59:30.984Z,97410.28
2023-01-13T07:01:57.888Z,97316.03
2023-01-13T07:04:25.029Z,97253.97
2023-01-13T07:06:53.098Z,97300.25
2023-01-13T07:09:20.962Z,97369.50
2023-01-13T07:11:48.910Z,97368.38
2023-01-13T07:14:15.587Z,97262.47
2023-01-13T07:16:42.432Z,97229.44
2023-01-13T07:19:09.102Z,97366.66
2023-01-13T07:21:35.954Z,97421.63
2023-01-13T07:24:15.902Z,97428.25
2023-01-13T07:26:45.940Z,97391.38
2023-01-13T07:29:12.813Z,97414.91
2023-01-13T07:31:40.596Z,97364.47
2023-01-13T07:34:08.979Z,97337.66
2023-01-13T07:36:36.977Z,97366.50
2023-01-13T07:39:03.940Z,97375.13
2023-01-13T07:41:32.424Z,97360.63
2023-01-13T07:44:04.507Z,97365.13
2023-01-13T07:46:31.378Z,97368.88
2023-01-13T07:49:00.166Z,97307.47
2023-01-13T07:51:27.192Z,97337.69
2023-01-13T07:53:54.007Z,97366.81
2023-01-13T07:56:22.413Z,97368.59
2023-01-13T07:58:49.123Z,97366.91
2023-01-13T08:01:17.887Z,97419.56
2023-01-13T08:03:45.233Z,97414.25
2023-01-13T08:06:12.388Z,97412.66
2023-01-13T08:08:39.406Z,97380.16
2023-01-13T08:11:08.109Z,97426.72
2023-01-13T08:13:35.104Z,97412.31
2023-01-13T08:16:04.899Z,97409.06
2023-01-13T08:18:32.857Z,97293.88
2023-01-13T08:21:05.621Z,97345.00
2023-01-13T08:23:32.363Z,97282.53
2023-01-13T08:26:04.866Z,97384.41
2023-01-13T08:28:31.620Z,97390.75
2023-01-13T08:31:07.872Z,97389.91
2023-01-13T08:33:34.728Z,97279.13
2023-01-13T08:36:09.807Z,97351.50
2023-01-13T08:38:37.164Z,97346.47
2023-01-13T08:41:16.100Z,97413.16
2023-01-13T08:43:42.896Z,97389.50
2023-01-13T08:46:09.569Z,97319.75
2023-01-13T08:48:36.380Z,97376.00
2023-01-13T08:51:08.625Z,97362.91
2023-01-13T08:53:36.533Z,97379.16
2023-01-13T08:56:07.607Z,97432.91
2023-01-13T08:58:34.292Z,97378.47
2023-01-13T09:01:05.488Z,97382.22
2023-01-13T09:03:32.538Z,97324.78
2023-01-13T09:05:59.134Z,97366.88
2023-01-13T09:08:25.876Z,97332.09
2023-01-13T09:10:52.565Z,97388.88
2023-01-13T09:13:19.378Z,97392.28
2023-01-13T09:15:48.513Z,97443.69
2023-01-13T09:18:15.341Z,97260.97
2023-01-13T09:20:42.026Z,97442.25
2023-01-13T09:23:10.579Z,97390.59
2023-01-13T09:25:38.224Z,97344.84
2023-01-13T09:28:05.230Z,97356.09
2023-01-13T09:30:32.270Z,97332.03
2023-01-13T09:32:59.706Z,97460.47
2023-01-13T09:35:26.402Z,97435.75
2023-01-13T09:37:54.060Z,97263.19
2023-01-13T09:40:21.207Z,97466.59
2023-01-13T09:42:50.856Z,97456.72
2023-01-13T09:45:29.402Z,97360.81
2023-01-13T09:48:11.529Z,97138.84
2023-01-13T09:50:54.827Z,97465.44
2023-01-13T09:53:28.555Z,97462.25
2023-01-13T09:55:56.024Z,97468.75
2023-01-13T09:58:27.607Z,97462.69
2023-01-13T10:01:24.301Z,97430.81
2023-01-13T10:04:04.442Z,97384.16
2023-01-13T10:10:40.299Z,97460.75
2023-01-13T10:13:37.931Z,97467.22
2023-01-13T10:16:10.710Z,97464.41
2023-01-13T10:18:53.404Z,97462.22
2023-01-13T10:21:34.753Z,97417.16
2023-01-13T10:24:21.885Z,97458.41
2023-01-13T10:27:02.796Z,97452.28
2023-01-13T10:29:32.984Z,97393.50
2023-01-13T10:32:00.599Z,97402.06
2023-01-13T10:34:28.409Z,97466.19
2023-01-13T10:36:57.861Z,97459.78
2023-01-13T10:39:25.197Z,97396.38
2023-01-13T10:42:06.947Z,97463.13
2023-01-13T10:44:52.936Z,97447.56
2023-01-13T10:47:27.192Z,97459.94
2023-01-13T10:50:20.734Z,97440.97
2023-01-13T10:53:03.196Z,97472.72
2023-01-13T10:55:35.945Z,97413.88
2023-01-13T10:58:13.178Z,97461.47
2023-01-13T11:00:40.353Z,97405.94
2023-01-13T11:03:20.111Z,97474.75
2023-01-13T11:05:50.178Z,97417.81
2023-01-13T11:08:25.830Z,97407.34
2023-01-13T11:10:55.511Z,97484.53
2023-01-13T11:13:42.666Z,97389.44
2023-01-13T11:16:17.981Z,97447.38
2023-01-13T11:19:00.175Z,97491.84
2023-01-13T11:21:35.608Z,97414.97
2023-01-13T11:24:22.570Z,97404.47
2023-01-13T11:27:01.929Z,97499.06
2023-01-13T11:29:37.683Z,97497.41
2023-01-13T11:32:19.492Z,97432.34
2023-01-13T11:34:51.449Z,97363.88
2023-01-13T11:37:41.090Z,97321.47
2023-01-13T11:40:18.856Z,97391.56
2023-01-13T11:43:08.589Z,97496.38
2023-01-13T11:45:46.083Z,97460.81
2023-01-13T11:48:17.408Z,97478.53
2023-01-13T11:51:16.561Z,97512.06
2023-01-13T11:54:01.269Z,97508.19
2023-01-13T11:57:05.249Z,97494.31
2023-01-13T11:59:38.099Z,97500.97
2023-01-13T12:02:07.792Z,97501.16
2023-01-13T12:04:41.158Z,97424.84
2023-01-13T12:07:34.232Z,97449.81
2023-01-13T12:10:30.491Z,97470.88
2023-01-13T12:13:13.710Z,97503.94
2023-01-13T12:16:13.767Z,97484.13
2023-01-13T12:19:02.173Z,97502.16
2023-01-13T12:21:32.740Z,97506.69
2023-01-13T12:24:24.509Z,97504.94
2023-01-13T12:27:11.350Z,97513.78
2023-01-13T12:29:39.268Z,97503.03
2023-01-13T12:32:12.394Z,97476.19
2023-01-13T12:34:44.718Z,97499.47
2023-01-13T12:37:23.557Z,97495.13
2023-01-13T12:40:05.197Z,97388.06
2023-01-13T12:42:48.570Z,97491.38
2023-01-13T12:45:16.488Z,97495.09
2023-01-13T12:47:45.696Z,97490.28
2023-01-13T12:50:24.962Z,97474.31
2023-01-13T12:52:54.053Z,97485.03
2023-01-13T12:55:36.469Z,97440.69
2023-01-13T12:58:06.082Z,97482.81
2023-01-13T13:00:41.629Z,97451.69
2023-01-13T13:03:08.397Z,97494.00
2023-01-13T13:05:41.050Z,97486.94
2023-01-13T13:08:26.497Z,97461.31
2023-01-13T13:11:22.976Z,97464.69
2023-01-13T13:13:49.722Z,97497.06
2023-01-13T13:16:25.572Z,97490.28
2023-01-13T13:19:18.625Z,97489.19
2023-01-13T13:22:15.710Z,97489.44
2023-01-13T13:24:48.602Z,97484.16
2023-01-13T13:27:22.411Z,97387.03
2023-01-13T13:30:11.567Z,97390.19
2023-01-13T13:33:16.743Z,97479.78
2023-01-13T13:35:46.241Z,97475.75
2023-01-13T13:38:25.111Z,97476.63
2023-01-13T13:40:52.122Z,97363.03
2023-01-13T13:43:20.418Z,97461.19
2023-01-13T13:45:51.720Z,97479.44
2023-01-13T13:48:44.907Z,97485.56
2023-01-13T13:51:35.018Z,97489.13
2023-01-13T13:54:02.109Z,97235.38
2023-01-13T13:56:35.441Z,97376.94
2023-01-13T13:59:02.193Z,97412.34
2023-01-13T14:01:34.716Z,97497.72
2023-01-13T14:04:15.796Z,97494.03
2023-01-13T14:07:05.377Z,97304.09
2023-01-13T14:09:45.585Z,97485.81
2023-01-13T14:12:26.344Z,96951.06
2023-01-13T14:14:53.699Z,97270.22
2023-01-13T14:17:24.997Z,97451.75
2023-01-13T14:19:54.072Z,97460.56
2023-01-13T14:22:21.170Z,97518.78
2023-01-13T14:24:48.898Z,97459.97
2023-01-13T14:27:18.314Z,97522.13
2023-01-13T14:29:45.330Z,97523.16
2023-01-13T14:32:19.270Z,97493.78
2023-01-13T14:34:46.471Z,97478.41
2023-01-13T14:37:28.729Z,97538.78
2023-01-13T14:39:56.801Z,97320.34
2023-01-13T14:42:23.607Z,97545.53
2023-01-13T14:44:51.564Z,97496.75
2023-01-13T14:47:24.457Z,97540.94
2023-01-13T14:50:16.348Z,97507.50
2023-01-13T14:52:53.539Z,97553.31
2023-01-13T14:55:35.885Z,97548.38
2023-01-13T14:58:28.695Z,97560.28
2023-01-13T15:01:33.872Z,97569.94
2023-01-13T15:04:39.987Z,97580.28
2023-01-13T15:07:23.554Z,97597.63
2023-01-13T15:09:54.585Z,97593.22
2023-01-13T15:12:55.981Z,97573.41
2023-01-13T15:15:24.135Z,97187.75
2023-01-13T15:17:51.705Z,97572.19
2023-01-13T15:20:22.707Z,97562.53
2023-01-13T15:22:51.157Z,97614.44
2023-01-13T15:25:20.172Z,97638.31
2023-01-13T15:27:50.225Z,97604.22
2023-01-13T15:30:20.175Z,97633.91
2023-01-13T15:32:47.115Z,97548.78
2023-01-13T15:35:15.581Z,97580.06
2023-01-13T15:37:44.151Z,97636.81
2023-01-13T15:40:22.484Z,97631.66
2023-01-13T15:42:49.726Z,97637.81
2023-01-13T15:45:16.965Z,97637.16
2023-01-13T15:47:44.717Z,97601.09
2023-01-13T15:50:16.502Z,97643.38
2023-01-13T15:52:43.455Z,97537.03
2023-01-13T15:55:10.966Z,97576.66
2023-01-13T15:57:45.598Z,97643.03
2023-01-13T16:00:20.418Z,97645.25
2023-01-13T16:02:48.122Z,97566.47
2023-01-13T16:05:14.912Z,97653.13
2023-01-13T16:07:41.868Z,97650.16
2023-01-13T16:10:35.029Z,97329.94
2023-01-13T16:13:23.030Z,97593.06
2023-01-13T16:16:29.362Z,97094.31
2023-01-13T16:19:03.486Z,97677.34
2023-01-13T16:21:46.114Z,97680.28
2023-01-13T16:24:22.370Z,97694.59
2023-01-13T16:27:06.388Z,97679.53
2023-01-13T16:29:35.563Z,97685.53
2023-01-13T16:32:02.781Z,97673.66
2023-01-13T16:34:29.612Z,97590.59
2023-01-13T16:36:56.348Z,97674.72
2023-01-13T16:39:23.585Z,97719.19
2023-01-13T16:41:50.372Z,97626.78
2023-01-13T16:44:17.405Z,97576.78
2023-01-13T16:46:45.067Z,97715.00
2023-01-13T16:49:13.953Z,97731.31
2023-01-13T16:52:13.788Z,97724.28
2023-01-13T16:54:48.673Z,97730.38
2023-01-13T16:57:23.287Z,97733.19
2023-01-13T17:00:04.529Z,97740.06
2023-01-13T17:02:59.533Z,97671.91
2023-01-13T17:05:58.697Z,97711.53
2023-01-13T17:08:52.644Z,97721.31
2023-01-13T17:11:21.209Z,97747.91
2023-01-13T17:13:50.964Z,97760.03
2023-01-13T17:16:35.802Z,97768.66
2023-01-13T17:19:02.810Z,97678.75
2023-01-13T17:21:29.963Z,97771.78
2023-01-13T17:23:57.036Z,97739.97
2023-01-13T17:26:34.892Z,97786.63
2023-01-13T17:29:26.520Z,97787.59
2023-01-13T17:31:53.579Z,97806.25
2023-01-13T17:34:21.325Z,97707.47
2023-01-13T17:36:48.603Z,97797.38
2023-01-13T17:39:17.990Z,97696.53
2023-01-13T17:41:49.507Z,97799.00
2023-01-13T17:44:21.820Z,97800.69
2023-01-13T17:46:49.544Z,97802.81
2023-01-13T17:49:19.203Z,97821.38
2023-01-13T17:51:45.937Z,97773.84
2023-01-13T17:54:15.850Z,97739.59
2023-01-13T17:56:44.658Z,97769.25
2023-01-13T17:59:12.880Z,97836.56
2023-01-13T18:01:43.288Z,97791.34
2023-01-13T18:04:16.289Z,97784.91
2023-01-13T18:06:44.693Z,97832.56
2023-01-13T18:09:16.788Z,97791.69
2023-01-13T18:11:47.322Z,97824.31
2023-01-13T18:14:16.228Z,97793.13
2023-01-13T18:16:44.344Z,97749.41
2023-01-13T18:19:11.492Z,97812.09
2023-01-13T18:21:38.108Z,97530.53
2023-01-13T18:24:05.913Z,97563.47
2023-01-13T18:26:33.152Z,97755.47
2023-01-13T18:29:00.932Z,97852.59
2023-01-13T18:31:28.937Z,97805.59
2023-01-13T18:33:55.689Z,97827.78
2023-01-13T18:36:22.501Z,97770.66
2023-01-13T18:38:50.376Z,97868.63
2023-01-13T18:41:17.325Z,97872.84
2023-01-13T18:43:44.030Z,97833.22
2023-01-13T18:46:10.671Z,97814.09
2023-01-13T18:48:37.406Z,97832.41
2023-01-13T18:51:05.147Z,97829.78
2023-01-13T18:53:31.886Z,97833.53
2023-01-13T18:55:58.618Z,97766.09
2023-01-13T18:58:25.623Z,97818.66
2023-01-13T19:01:01.408Z,97886.63
2023-01-13T19:03:30.278Z,97574.50
2023-01-13T19:06:05.635Z,97902.16
2023-01-13T19:08:32.727Z,97852.66
2023-01-13T19:11:06.754Z,97865.72
2023-01-13T19:13:36.314Z,97859.66
2023-01-13T19:16:07.450Z,97911.31
2023-01-13T19:18:36.711Z,97895.13
2023-01-13T19:21:10.270Z,97839.91
2023-01-13T19:23:37.695Z,97709.59
2023-01-13T19:26:07.534Z,97648.03
2023-01-13T19:28:35.619Z,97839.91
2023-01-13T19:31:04.879Z,97939.56
2023-01-13T19:33:36.059Z,97946.44
2023-01-13T19:36:04.443Z,97653.78
2023-01-13T19:38:31.962Z,97949.72
2023-01-13T19:41:01.241Z,97852.97
2023-01-13T19:43:28.525Z,97855.59
2023-01-13T19:45:55.222Z,97813.59
2023-01-13T19:48:22.013Z,97978.97
2023-01-13T19:50:49.663Z,97934.50
2023-01-13T19:53:18.021Z,97880.41
2023-01-13T19:55:47.558Z,97991.09
2023-01-13T19:58:16.631Z,97870.13
2023-01-13T20:00:43.362Z,97919.47
2023-01-13T20:03:10.270Z,97968.19
2023-01-13T20:05:37.038Z,97966.88
2023-01-13T20:08:04.360Z,97932.84
2023-01-13T20:10:31.052Z,97935.63
2023-01-13T20:12:58.413Z,97924.50
2023-01-13T20:15:25.259Z,97646.63
2023-01-13T20:17:58.224Z,97966.28
2023-01-13T20:20:25.495Z,97730.91
2023-01-13T20:22:52.786Z,97691.88
2023-01-13T20:25:19.711Z,97801.63
2023-01-13T20:27:47.490Z,97953.84
2023-01-13T20:30:15.082Z,98011.78
2023-01-13T20:32:43.827Z,98003.75
2023-01-13T20:35:11.531Z,97931.63
2023-01-13T20:37:39.137Z,97977.75
2023-01-13T20:40:07.509Z,97980.66
2023-01-13T20:42:34.329Z,97941.31
2023-01-13T20:45:01.591Z,97983.53
2023-01-13T20:47:30.175Z,97939.56
2023-01-13T20:49:57.053Z,97892.03
2023-01-13T20:52:23.747Z,97708.56
2023-01-13T20:54:50.669Z,97972.41
2023-01-13T20:57:17.778Z,98008.59
2023-01-13T20:59:44.549Z,97982.22
2023-01-13T21:02:13.306Z,98060.16
2023-01-13T21:04:49.215Z,98020.22
2023-01-13T21:07:24.244Z,98067.56
2023-01-13T21:09:56.604Z,98015.50
2023-01-13T21:12:23.518Z,98087.00
2023-01-13T21:14:51.278Z,97926.03
2023-01-13T21:17:18.048Z,98034.59
2023-01-13T21:19:47.373Z,98013.63
2023-01-13T21:22:14.257Z,98045.22
2023-01-13T21:24:40.898Z,97996.88
2023-01-13T21:27:07.585Z,97991.00
2023-01-13T21:29:35.621Z,98074.13
2023-01-13T21:32:02.283Z,98056.63
2023-01-13T21:34:28.991Z,98057.31
2023-01-13T21:36:56.433Z,97992.66
2023-01-13T21:39:23.223Z,97959.25
2023-01-13T21:41:49.988Z,98012.63
2023-01-13T21:44:18.975Z,97991.59
2023-01-13T21:46:45.585Z,98042.72
2023-01-13T21:49:12.150Z,98109.38
2023-01-13T21:51:38.961Z,98089.19
2023-01-13T21:54:05.641Z,98043.00
2023-01-13T21:56:32.336Z,97977.72
2023-01-13T21:58:58.984Z,98017.75
2023-01-13T22:01:25.834Z,98034.59
2023-01-13T22:03:52.791Z,98076.63
2023-01-13T22:06:19.678Z,98117.91
2023-01-13T22:08:46.329Z,98045.09
2023-01-13T22:11:13.057Z,97944.00
2023-01-13T22:13:40.487Z,97985.81
2023-01-13T22:16:07.430Z,98090.84
2023-01-13T22:18:36.394Z,97847.47
2023-01-13T22:21:03.316Z,98012.91
2023-01-13T22:23:37.065Z,98078.41
2023-01-13T22:26:06.558Z,98106.09
2023-01-13T22:28:34.252Z,98103.63
2023-01-13T22:31:01.820Z,98047.41
2023-01-13T22:33:28.772Z,97845.09
2023-01-13T22:35:56.107Z,98026.34
2023-01-13T22:38:22.755Z,98050.13
2023-01-13T22:41:00.347Z,97989.28
2023-01-13T22:43:27.462Z,97975.63
2023-01-13T22:46:02.592Z,98115.63
2023-01-13T22:48:29.808Z,98075.31
2023-01-13T22:50:56.525Z,98119.06
2023-01-13T22:53:23.581Z,97983.63
2023-01-13T22:55:57.604Z,98134.63
2023-01-13T22:58:25.472Z,98093.19
2023-01-13T23:00:52.398Z,98000.69
2023-01-13T23:03:19.476Z,97827.91
2023-01-13T23:05:48.625Z,98061.28
2023-01-13T23:08:15.368Z,98073.06
2023-01-13T23:10:42.519Z,97756.88
2023-01-13T23:13:09.290Z,97866.03
2023-01-13T23:15:35.960Z,98098.28
2023-01-13T23:18:02.761Z,98044.13
2023-01-13T23:20:30.230Z,98152.63
2023-01-13T23:22:57.389Z,97842.13
2023-01-13T23:25:25.961Z,98064.34
2023-01-13T23:27:53.233Z,98143.50
2023-01-13T23:30:19.959Z,98040.81
2023-01-13T23:32:46.676Z,98101.03
2023-01-13T23:35:13.405Z,98019.44
2023-01-13T23:37:40.131Z,97953.09
2023-01-13T23:40:07.235Z,98096.22
2023-01-13T23:42:34.017Z,98158.50
2023-01-13T23:45:00.606Z,97990.56
2023-01-13T23:47:28.345Z,98168.84
2023-01-13T23:49:54.977Z,98048.47
2023-01-13T23:52:21.598Z,98065.00
2023-01-13T23:54:48.207Z,98172.44
2023-01-13T23:57:15.225Z,98176.56
2023-01-13T23:59:41.875Z,98068.66
